sensor_id;sensor_type;location;lat;lon;timestamp;pressure;altitude;pressure_sealevel;temperature;humidity
19811;BME280;10065;49.632;8.346;2022-12-16T00:01:14;99667.63;;;-0.36;61.02
19811;BME280;10065;49.632;8.346;2022-12-16T00:03:47;99664.69;;;-0.45;60.85
19811;BME280;10065;49.632;8.346;2022-12-16T00:06:18;99662.31;;;-0.35;60.50
19811;BME280;10065;49.632;8.346;2022-12-16T00:08:46;99657.31;;;-0.38;60.42
19811;BME280;10065;49.632;8.346;2022-12-16T00:11:14;99669.06;;;-0.45;60.56
19811;BME280;10065;49.632;8.346;2022-12-16T00:13:42;99671.66;;;-0.45;60.66
19811;BME280;10065;49.632;8.346;2022-12-16T00:16:11;99674.22;;;-0.58;60.91
19811;BME280;10065;49.632;8.346;2022-12-16T00:18:39;99677.75;;;-0.59;61.17
19811;BME280;10065;49.632;8.346;2022-12-16T00:21:08;99677.13;;;-0.62;61.31
19811;BME280;10065;49.632;8.346;2022-12-16T00:23:36;99681.47;;;-0.63;61.35
19811;BME280;10065;49.632;8.346;2022-12-16T00:26:07;99682.41;;;-0.64;61.46
19811;BME280;10065;49.632;8.346;2022-12-16T00:28:35;99687.41;;;-0.61;61.44
19811;BME280;10065;49.632;8.346;2022-12-16T00:31:03;99684.63;;;-0.58;61.00
19811;BME280;10065;49.632;8.346;2022-12-16T00:33:31;99686.88;;;-0.66;61.10
19811;BME280;10065;49.632;8.346;2022-12-16T00:36:00;99689.88;;;-0.72;61.31
19811;BME280;10065;49.632;8.346;2022-12-16T00:38:29;99686.63;;;-0.76;61.59
19811;BME280;10065;49.632;8.346;2022-12-16T00:40:57;99691.06;;;-0.78;61.78
19811;BME280;10065;49.632;8.346;2022-12-16T00:43:25;99692.63;;;-0.61;61.28
19811;BME280;10065;49.632;8.346;2022-12-16T00:45:52;99692.53;;;-0.59;61.35
19811;BME280;10065;49.632;8.346;2022-12-16T00:48:21;99697.06;;;-0.49;60.98
19811;BME280;10065;49.632;8.346;2022-12-16T00:50:50;99694.75;;;-0.53;60.98
19811;BME280;10065;49.632;8.346;2022-12-16T00:53:21;99701.19;;;-0.59;60.92
19811;BME280;10065;49.632;8.346;2022-12-16T00:55:51;99693.84;;;-0.66;61.11
19811;BME280;10065;49.632;8.346;2022-12-16T00:58:19;99701.47;;;-0.78;61.14
19811;BME280;10065;49.632;8.346;2022-12-16T01:00:47;99703.38;;;-0.80;61.29
19811;BME280;10065;49.632;8.346;2022-12-16T01:03:17;99705.31;;;-0.83;61.44
19811;BME280;10065;49.632;8.346;2022-12-16T01:05:47;99710.97;;;-0.77;61.21
19811;BME280;10065;49.632;8.346;2022-12-16T01:08:16;99709.03;;;-0.73;60.93
19811;BME280;10065;49.632;8.346;2022-12-16T01:10:49;99723.16;;;-0.77;60.92
19811;BME280;10065;49.632;8.346;2022-12-16T01:13:19;99719.16;;;-0.83;60.85
19811;BME280;10065;49.632;8.346;2022-12-16T01:15:47;99726.09;;;-0.69;60.97
19811;BME280;10065;49.632;8.346;2022-12-16T01:18:16;99729.84;;;-0.73;60.78
19811;BME280;10065;49.632;8.346;2022-12-16T01:20:44;99730.78;;;-0.74;60.93
19811;BME280;10065;49.632;8.346;2022-12-16T01:23:11;99730.50;;;-0.84;61.00
19811;BME280;10065;49.632;8.346;2022-12-16T01:25:39;99725.59;;;-0.88;61.32
19811;BME280;10065;49.632;8.346;2022-12-16T01:28:07;99732.44;;;-0.87;61.10
19811;BME280;10065;49.632;8.346;2022-12-16T01:30:36;99734.34;;;-0.89;61.01
19811;BME280;10065;49.632;8.346;2022-12-16T01:33:04;99734.69;;;-0.95;61.19
19811;BME280;10065;49.632;8.346;2022-12-16T01:35:33;99736.75;;;-1.00;61.43
19811;BME280;10065;49.632;8.346;2022-12-16T01:38:21;99737.41;;;-0.97;61.24
19811;BME280;10065;49.632;8.346;2022-12-16T01:40:49;99735.06;;;-0.87;60.95
19811;BME280;10065;49.632;8.346;2022-12-16T01:43:18;99730.69;;;-0.72;60.14
19811;BME280;10065;49.632;8.346;2022-12-16T01:45:51;99734.66;;;-0.67;59.76
19811;BME280;10065;49.632;8.346;2022-12-16T01:48:34;99732.53;;;-0.74;59.58
19811;BME280;10065;49.632;8.346;2022-12-16T01:51:10;99728.19;;;-0.74;59.77
19811;BME280;10065;49.632;8.346;2022-12-16T01:53:41;99733.38;;;-0.74;59.45
19811;BME280;10065;49.632;8.346;2022-12-16T01:56:10;99732.09;;;-0.81;59.53
19811;BME280;10065;49.632;8.346;2022-12-16T01:58:41;99732.94;;;-0.81;59.54
19811;BME280;10065;49.632;8.346;2022-12-16T02:01:12;99735.22;;;-0.76;59.22
19811;BME280;10065;49.632;8.346;2022-12-16T02:03:41;99727.06;;;-0.84;59.20
19811;BME280;10065;49.632;8.346;2022-12-16T02:06:09;99735.44;;;-0.93;59.78
19811;BME280;10065;49.632;8.346;2022-12-16T02:08:37;99736.56;;;-0.97;60.02
19811;BME280;10065;49.632;8.346;2022-12-16T02:11:18;99732.75;;;-0.92;60.04
19811;BME280;10065;49.632;8.346;2022-12-16T02:14:01;99734.31;;;-1.03;60.25
19811;BME280;10065;49.632;8.346;2022-12-16T02:16:39;99733.41;;;-1.17;60.61
19811;BME280;10065;49.632;8.346;2022-12-16T02:22:17;99733.09;;;-1.12;60.77
19811;BME280;10065;49.632;8.346;2022-12-16T02:25:16;99730.88;;;-1.04;60.53
19811;BME280;10065;49.632;8.346;2022-12-16T02:27:57;99732.94;;;-1.09;60.40
19811;BME280;10065;49.632;8.346;2022-12-16T02:30:38;99725.94;;;-1.23;60.86
19811;BME280;10065;49.632;8.346;2022-12-16T02:36:25;99725.38;;;-1.14;60.72
19811;BME280;10065;49.632;8.346;2022-12-16T02:38:59;99727.28;;;-1.16;60.74
19811;BME280;10065;49.632;8.346;2022-12-16T02:41:36;99721.56;;;-1.22;60.79
19811;BME280;10065;49.632;8.346;2022-12-16T02:44:10;99724.38;;;-1.25;61.01
19811;BME280;10065;49.632;8.346;2022-12-16T02:46:42;99722.03;;;-1.30;61.22
19811;BME280;10065;49.632;8.346;2022-12-16T02:49:46;99726.31;;;-1.29;61.09
19811;BME280;10065;49.632;8.346;2022-12-16T02:52:16;99720.72;;;-1.37;61.21
19811;BME280;10065;49.632;8.346;2022-12-16T02:54:46;99724.63;;;-1.30;61.05
19811;BME280;10065;49.632;8.346;2022-12-16T02:57:26;99726.22;;;-1.27;61.14
19811;BME280;10065;49.632;8.346;2022-12-16T03:00:00;99729.66;;;-1.27;61.09
19811;BME280;10065;49.632;8.346;2022-12-16T03:02:35;99733.94;;;-1.26;60.98
19811;BME280;10065;49.632;8.346;2022-12-16T03:05:08;99734.13;;;-1.29;61.02
19811;BME280;10065;49.632;8.346;2022-12-16T03:07:40;99741.28;;;-1.32;61.20
19811;BME280;10065;49.632;8.346;2022-12-16T03:10:13;99741.84;;;-1.27;61.07
19811;BME280;10065;49.632;8.346;2022-12-16T03:12:44;99738.94;;;-1.37;61.25
19811;BME280;10065;49.632;8.346;2022-12-16T03:15:14;99745.28;;;-1.27;61.09
19811;BME280;10065;49.632;8.346;2022-12-16T03:17:47;99743.75;;;-1.31;61.29
19811;BME280;10065;49.632;8.346;2022-12-16T03:20:18;99748.03;;;-1.30;61.07
19811;BME280;10065;49.632;8.346;2022-12-16T03:22:51;99754.38;;;-1.34;61.28
19811;BME280;10065;49.632;8.346;2022-12-16T03:25:21;99759.06;;;-1.40;61.33
19811;BME280;10065;49.632;8.346;2022-12-16T03:27:53;99758.25;;;-1.41;61.36
19811;BME280;10065;49.632;8.346;2022-12-16T03:30:25;99755.44;;;-1.52;61.47
19811;BME280;10065;49.632;8.346;2022-12-16T03:32:58;99755.63;;;-1.55;61.84
19811;BME280;10065;49.632;8.346;2022-12-16T03:35:32;99757.28;;;-1.54;61.80
19811;BME280;10065;49.632;8.346;2022-12-16T03:38:03;99759.13;;;-1.56;61.72
19811;BME280;10065;49.632;8.346;2022-12-16T03:40:32;99760.81;;;-1.55;61.78
19811;BME280;10065;49.632;8.346;2022-12-16T03:43:03;99760.34;;;-1.62;61.89
19811;BME280;10065;49.632;8.346;2022-12-16T03:45:35;99764.69;;;-1.62;62.10
19811;BME280;10065;49.632;8.346;2022-12-16T03:48:07;99766.78;;;-1.53;61.92
19811;BME280;10065;49.632;8.346;2022-12-16T03:50:37;99774.41;;;-1.50;61.54
19811;BME280;10065;49.632;8.346;2022-12-16T03:53:06;99775.22;;;-1.49;61.74
19811;BME280;10065;49.632;8.346;2022-12-16T03:55:34;99776.25;;;-1.52;61.61
19811;BME280;10065;49.632;8.346;2022-12-16T03:58:02;99777.09;;;-1.52;61.81
19811;BME280;10065;49.632;8.346;2022-12-16T04:00:29;99784.69;;;-1.48;61.73
19811;BME280;10065;49.632;8.346;2022-12-16T04:02:57;99779.78;;;-1.39;61.33
19811;BME280;10065;49.632;8.346;2022-12-16T04:05:27;99786.13;;;-1.43;61.25
19811;BME280;10065;49.632;8.346;2022-12-16T04:07:54;99790.34;;;-1.56;61.61
19811;BME280;10065;49.632;8.346;2022-12-16T04:10:27;99785.41;;;-1.61;62.05
19811;BME280;10065;49.632;8.346;2022-12-16T04:13:09;99790.78;;;-1.64;61.82
19811;BME280;10065;49.632;8.346;2022-12-16T04:15:55;99790.25;;;-1.55;61.65
19811;BME280;10065;49.632;8.346;2022-12-16T04:18:41;99793.03;;;-1.58;61.51
19811;BME280;10065;49.632;8.346;2022-12-16T04:21:30;99793.13;;;-1.59;61.52
19811;BME280;10065;49.632;8.346;2022-12-16T04:24:18;99802.78;;;-1.61;61.54
19811;BME280;10065;49.632;8.346;2022-12-16T04:26:47;99806.47;;;-1.65;61.48
19811;BME280;10065;49.632;8.346;2022-12-16T04:29:40;99802.19;;;-1.66;61.39
19811;BME280;10065;49.632;8.346;2022-12-16T04:32:22;99810.66;;;-1.63;61.84
19811;BME280;10065;49.632;8.346;2022-12-16T04:34:50;99815.38;;;-1.69;61.76
19811;BME280;10065;49.632;8.346;2022-12-16T04:37:19;99819.53;;;-1.67;61.95
19811;BME280;10065;49.632;8.346;2022-12-16T04:40:04;99824.53;;;-1.48;61.44
19811;BME280;10065;49.632;8.346;2022-12-16T04:42:49;99822.28;;;-1.54;61.41
19811;BME280;10065;49.632;8.346;2022-12-16T04:45:35;99824.91;;;-1.54;61.59
19811;BME280;10065;49.632;8.346;2022-12-16T04:48:20;99829.63;;;-1.61;61.60
19811;BME280;10065;49.632;8.346;2022-12-16T04:51:06;99830.94;;;-1.54;61.61
19811;BME280;10065;49.632;8.346;2022-12-16T04:53:52;99839.22;;;-1.47;61.31
19811;BME280;10065;49.632;8.346;2022-12-16T04:56:38;99840.34;;;-1.51;61.24
19811;BME280;10065;49.632;8.346;2022-12-16T04:59:23;99847.91;;;-1.62;61.53
19811;BME280;10065;49.632;8.346;2022-12-16T05:02:07;99847.41;;;-1.69;61.61
19811;BME280;10065;49.632;8.346;2022-12-16T05:04:53;99849.75;;;-1.80;61.84
19811;BME280;10065;49.632;8.346;2022-12-16T05:07:38;99864.69;;;-1.83;62.11
19811;BME280;10065;49.632;8.346;2022-12-16T05:10:39;99871.13;;;-1.91;62.08
19811;BME280;10065;49.632;8.346;2022-12-16T05:13:23;99873.25;;;-1.97;62.38
19811;BME280;10065;49.632;8.346;2022-12-16T05:16:09;99872.56;;;-2.01;62.33
19811;BME280;10065;49.632;8.346;2022-12-16T05:18:54;99872.91;;;-2.07;62.47
19811;BME280;10065;49.632;8.346;2022-12-16T05:21:40;99874.81;;;-2.10;62.55
19811;BME280;10065;49.632;8.346;2022-12-16T05:24:25;99884.22;;;-2.08;62.41
19811;BME280;10065;49.632;8.346;2022-12-16T05:27:19;99896.97;;;-2.03;62.49
19811;BME280;10065;49.632;8.346;2022-12-16T05:30:05;99893.84;;;-2.10;62.58
19811;BME280;10065;49.632;8.346;2022-12-16T05:33:05;99896.28;;;-2.07;62.60
19811;BME280;10065;49.632;8.346;2022-12-16T05:35:51;99900.47;;;-2.04;62.51
19811;BME280;10065;49.632;8.346;2022-12-16T05:38:38;99905.06;;;-2.09;62.70
19811;BME280;10065;49.632;8.346;2022-12-16T05:41:24;99904.00;;;-2.05;62.73
19811;BME280;10065;49.632;8.346;2022-12-16T05:44:10;99907.50;;;-2.06;62.42
19811;BME280;10065;49.632;8.346;2022-12-16T05:46:56;99912.03;;;-2.10;62.61
19811;BME280;10065;49.632;8.346;2022-12-16T05:49:41;99924.09;;;-2.09;62.70
19811;BME280;10065;49.632;8.346;2022-12-16T05:52:27;99931.13;;;-2.11;62.41
19811;BME280;10065;49.632;8.346;2022-12-16T05:55:12;99931.78;;;-2.23;62.62
19811;BME280;10065;49.632;8.346;2022-12-16T05:57:59;99940.06;;;-2.32;62.89
19811;BME280;10065;49.632;8.346;2022-12-16T06:00:46;99935.94;;;-2.36;63.17
19811;BME280;10065;49.632;8.346;2022-12-16T06:03:31;99945.72;;;-2.41;63.07
19811;BME280;10065;49.632;8.346;2022-12-16T06:06:16;99955.56;;;-2.31;63.08
19811;BME280;10065;49.632;8.346;2022-12-16T06:09:02;99956.41;;;-2.30;62.94
19811;BME280;10065;49.632;8.346;2022-12-16T06:11:48;99955.13;;;-2.39;63.02
19811;BME280;10065;49.632;8.346;2022-12-16T06:14:33;99963.34;;;-2.31;62.96
19811;BME280;10065;49.632;8.346;2022-12-16T06:17:21;99962.50;;;-2.31;62.82
19811;BME280;10065;49.632;8.346;2022-12-16T06:20:07;99970.53;;;-2.36;62.71
19811;BME280;10065;49.632;8.346;2022-12-16T06:22:53;99969.09;;;-2.41;62.80
19811;BME280;10065;49.632;8.346;2022-12-16T06:25:39;99975.53;;;-2.48;63.09
19811;BME280;10065;49.632;8.346;2022-12-16T06:28:24;99982.88;;;-2.56;63.33
19811;BME280;10065;49.632;8.346;2022-12-16T06:31:11;99980.34;;;-2.58;63.81
19811;BME280;10065;49.632;8.346;2022-12-16T06:33:58;99992.16;;;-2.52;63.67
19811;BME280;10065;49.632;8.346;2022-12-16T06:36:44;99993.25;;;-2.56;63.62
19811;BME280;10065;49.632;8.346;2022-12-16T06:39:41;100001.94;;;-2.57;63.55
19811;BME280;10065;49.632;8.346;2022-12-16T06:42:26;100002.09;;;-2.60;63.77
19811;BME280;10065;49.632;8.346;2022-12-16T06:45:11;100004.69;;;-2.60;63.70
19811;BME280;10065;49.632;8.346;2022-12-16T06:48:00;100018.44;;;-2.58;63.48
19811;BME280;10065;49.632;8.346;2022-12-16T06:50:47;100015.97;;;-2.61;63.71
19811;BME280;10065;49.632;8.346;2022-12-16T06:53:32;100021.69;;;-2.55;63.99
19811;BME280;10065;49.632;8.346;2022-12-16T06:56:17;100028.03;;;-2.60;63.76
19811;BME280;10065;49.632;8.346;2022-12-16T06:59:03;100027.38;;;-2.64;63.95
19811;BME280;10065;49.632;8.346;2022-12-16T07:01:48;100030.78;;;-2.63;64.03
19811;BME280;10065;49.632;8.346;2022-12-16T07:04:33;100041.94;;;-2.61;63.69
19811;BME280;10065;49.632;8.346;2022-12-16T07:07:20;100043.47;;;-2.57;63.55
19811;BME280;10065;49.632;8.346;2022-12-16T07:10:06;100043.31;;;-2.54;63.50
19811;BME280;10065;49.632;8.346;2022-12-16T07:12:51;100055.38;;;-2.53;63.37
19811;BME280;10065;49.632;8.346;2022-12-16T07:15:37;100067.69;;;-2.57;63.47
19811;BME280;10065;49.632;8.346;2022-12-16T07:18:22;100063.34;;;-2.56;63.41
19811;BME280;10065;49.632;8.346;2022-12-16T07:21:07;100067.44;;;-2.52;63.36
19811;BME280;10065;49.632;8.346;2022-12-16T07:23:54;100071.03;;;-2.55;63.52
19811;BME280;10065;49.632;8.346;2022-12-16T07:26:40;100077.06;;;-2.54;63.31
19811;BME280;10065;49.632;8.346;2022-12-16T07:29:26;100078.59;;;-2.50;63.26
19811;BME280;10065;49.632;8.346;2022-12-16T07:32:11;100079.44;;;-2.50;63.23
19811;BME280;10065;49.632;8.346;2022-12-16T07:34:56;100096.47;;;-2.44;63.34
19811;BME280;10065;49.632;8.346;2022-12-16T07:37:41;100088.22;;;-2.35;62.87
19811;BME280;10065;49.632;8.346;2022-12-16T07:40:28;100097.09;;;-2.22;62.76
19811;BME280;10065;49.632;8.346;2022-12-16T07:43:14;100102.31;;;-2.22;62.28
19811;BME280;10065;49.632;8.346;2022-12-16T07:46:00;100104.19;;;-2.25;62.34
19811;BME280;10065;49.632;8.346;2022-12-16T07:48:45;100111.91;;;-2.24;62.50
19811;BME280;10065;49.632;8.346;2022-12-16T07:51:30;100122.22;;;-2.05;61.99
19811;BME280;10065;49.632;8.346;2022-12-16T07:54:21;100119.78;;;-2.08;62.05
19811;BME280;10065;49.632;8.346;2022-12-16T07:57:08;100125.38;;;-2.16;62.28
19811;BME280;10065;49.632;8.346;2022-12-16T07:59:53;100130.25;;;-2.27;62.68
19811;BME280;10065;49.632;8.346;2022-12-16T08:02:37;100134.19;;;-2.37;63.46
19811;BME280;10065;49.632;8.346;2022-12-16T08:05:23;100140.22;;;-2.37;63.58
19811;BME280;10065;49.632;8.346;2022-12-16T08:08:08;100141.78;;;-2.15;63.27
19811;BME280;10065;49.632;8.346;2022-12-16T08:10:54;100145.44;;;-2.02;62.96
19811;BME280;10065;49.632;8.346;2022-12-16T08:13:41;100153.41;;;-1.88;62.69
19811;BME280;10065;49.632;8.346;2022-12-16T08:16:26;100159.97;;;-1.81;62.44
19811;BME280;10065;49.632;8.346;2022-12-16T08:19:11;100160.72;;;-1.62;62.02
19811;BME280;10065;49.632;8.346;2022-12-16T08:21:56;100166.44;;;-1.55;61.64
19811;BME280;10065;49.632;8.346;2022-12-16T08:24:42;100157.66;;;-1.53;61.74
19811;BME280;10065;49.632;8.346;2022-12-16T08:27:27;100162.91;;;-1.54;61.78
19811;BME280;10065;49.632;8.346;2022-12-16T08:30:14;100177.75;;;-1.56;61.79
19811;BME280;10065;49.632;8.346;2022-12-16T08:32:59;100178.00;;;-1.61;62.28
19811;BME280;10065;49.632;8.346;2022-12-16T08:35:45;100186.38;;;-1.38;62.14
19811;BME280;10065;49.632;8.346;2022-12-16T08:38:31;100182.94;;;-1.39;62.12
19811;BME280;10065;49.632;8.346;2022-12-16T08:41:16;100180.28;;;-1.22;62.27
19811;BME280;10065;49.632;8.346;2022-12-16T08:44:01;100186.03;;;-0.99;61.40
19811;BME280;10065;49.632;8.346;2022-12-16T08:46:48;100190.75;;;-1.06;61.33
19811;BME280;10065;49.632;8.346;2022-12-16T08:49:34;100196.09;;;-1.09;62.12
19811;BME280;10065;49.632;8.346;2022-12-16T08:52:25;100204.34;;;-1.01;62.10
19811;BME280;10065;49.632;8.346;2022-12-16T08:55:10;100203.34;;;-0.98;62.36
19811;BME280;10065;49.632;8.346;2022-12-16T08:57:55;100204.53;;;-0.88;62.23
19811;BME280;10065;49.632;8.346;2022-12-16T09:00:41;100209.41;;;-0.82;62.44
19811;BME280;10065;49.632;8.346;2022-12-16T09:03:34;100220.31;;;-0.60;62.00
19811;BME280;10065;49.632;8.346;2022-12-16T09:06:19;100225.13;;;-0.36;61.49
19811;BME280;10065;49.632;8.346;2022-12-16T09:09:06;100226.28;;;-0.26;61.29
19811;BME280;10065;49.632;8.346;2022-12-16T09:11:52;100223.00;;;-0.14;60.92
19811;BME280;10065;49.632;8.346;2022-12-16T09:14:37;100230.28;;;-0.05;60.65
19811;BME280;10065;49.632;8.346;2022-12-16T09:17:23;100227.16;;;0.04;60.40
19811;BME280;10065;49.632;8.346;2022-12-16T09:20:10;100224.19;;;0.10;60.42
19811;BME280;10065;49.632;8.346;2022-12-16T09:22:55;100236.91;;;0.16;60.09
19811;BME280;10065;49.632;8.346;2022-12-16T09:25:41;100239.59;;;0.15;60.00
19811;BME280;10065;49.632;8.346;2022-12-16T09:28:26;100229.66;;;0.21;59.95
19811;BME280;10065;49.632;8.346;2022-12-16T09:31:11;100238.72;;;0.30;59.66
19811;BME280;10065;49.632;8.346;2022-12-16T09:33:57;100243.44;;;0.23;60.14
19811;BME280;10065;49.632;8.346;2022-12-16T09:36:43;100242.53;;;0.24;60.24
19811;BME280;10065;49.632;8.346;2022-12-16T09:39:28;100241.47;;;0.27;60.29
19811;BME280;10065;49.632;8.346;2022-12-16T09:42:22;100242.56;;;0.38;59.77
19811;BME280;10065;49.632;8.346;2022-12-16T09:45:17;100247.41;;;0.45;60.03
19811;BME280;10065;49.632;8.346;2022-12-16T09:48:10;100250.59;;;0.50;59.82
19811;BME280;10065;49.632;8.346;2022-12-16T09:50:59;100243.16;;;0.58;59.60
19811;BME280;10065;49.632;8.346;2022-12-16T09:53:49;100249.09;;;0.46;59.85
19811;BME280;10065;49.632;8.346;2022-12-16T09:56:36;100248.38;;;0.58;59.50
19811;BME280;10065;49.632;8.346;2022-12-16T09:59:24;100256.41;;;0.69;59.55
19811;BME280;10065;49.632;8.346;2022-12-16T10:02:14;100252.88;;;0.84;59.18
19811;BME280;10065;49.632;8.346;2022-12-16T10:05:02;100251.22;;;0.97;59.16
19811;BME280;10065;49.632;8.346;2022-12-16T10:07:56;100254.91;;;1.50;58.03
19811;BME280;10065;49.632;8.346;2022-12-16T10:10:51;100268.34;;;2.39;55.90
19811;BME280;10065;49.632;8.346;2022-12-16T10:13:45;100273.13;;;3.10;53.65
19811;BME280;10065;49.632;8.346;2022-12-16T10:16:36;100268.25;;;3.67;51.55
19811;BME280;10065;49.632;8.346;2022-12-16T10:19:45;100266.63;;;3.40;51.60
19811;BME280;10065;49.632;8.346;2022-12-16T10:22:38;100266.53;;;2.91;52.59
19811;BME280;10065;49.632;8.346;2022-12-16T10:25:31;100274.56;;;2.50;53.81
19811;BME280;10065;49.632;8.346;2022-12-16T10:28:25;100271.88;;;3.02;54.05
19811;BME280;10065;49.632;8.346;2022-12-16T10:31:15;100268.16;;;4.75;49.46
19811;BME280;10065;49.632;8.346;2022-12-16T10:34:01;100263.53;;;5.56;47.52
19811;BME280;10065;49.632;8.346;2022-12-16T10:36:48;100268.97;;;6.09;45.95
19811;BME280;10065;49.632;8.346;2022-12-16T10:39:44;100269.13;;;6.28;45.67
19811;BME280;10065;49.632;8.346;2022-12-16T10:42:38;100263.25;;;6.77;45.43
19811;BME280;10065;49.632;8.346;2022-12-16T10:45:30;100262.56;;;7.67;44.05
19811;BME280;10065;49.632;8.346;2022-12-16T10:48:22;100268.63;;;9.13;41.14
19811;BME280;10065;49.632;8.346;2022-12-16T10:51:23;100266.00;;;9.95;39.23
19811;BME280;10065;49.632;8.346;2022-12-16T10:54:22;100266.78;;;9.51;38.94
19811;BME280;10065;49.632;8.346;2022-12-16T10:57:14;100258.44;;;8.33;40.44
19811;BME280;10065;49.632;8.346;2022-12-16T11:00:11;100266.28;;;7.45;42.47
19811;BME280;10065;49.632;8.346;2022-12-16T11:03:16;100269.78;;;7.25;42.43
19811;BME280;10065;49.632;8.346;2022-12-16T11:06:03;100270.75;;;7.54;41.93
19811;BME280;10065;49.632;8.346;2022-12-16T11:08:48;100276.47;;;7.29;41.83
19811;BME280;10065;49.632;8.346;2022-12-16T11:11:33;100270.97;;;7.81;41.47
19811;BME280;10065;49.632;8.346;2022-12-16T11:14:23;100267.09;;;9.01;39.27
19811;BME280;10065;49.632;8.346;2022-12-16T11:17:28;100264.78;;;9.62;38.28
19811;BME280;10065;49.632;8.346;2022-12-16T11:20:18;100267.50;;;10.43;36.61
19811;BME280;10065;49.632;8.346;2022-12-16T11:23:15;100277.03;;;10.71;36.18
19811;BME280;10065;49.632;8.346;2022-12-16T11:26:11;100282.09;;;10.47;36.55
19811;BME280;10065;49.632;8.346;2022-12-16T11:29:04;100281.31;;;9.00;38.24
19811;BME280;10065;49.632;8.346;2022-12-16T11:31:55;100283.31;;;7.71;40.32
19811;BME280;10065;49.632;8.346;2022-12-16T11:34:44;100289.53;;;6.47;42.29
19811;BME280;10065;49.632;8.346;2022-12-16T11:37:32;100288.19;;;5.44;44.54
19811;BME280;10065;49.632;8.346;2022-12-16T11:40:18;100296.38;;;4.60;46.32
19811;BME280;10065;49.632;8.346;2022-12-16T11:43:05;100299.38;;;4.08;47.96
19811;BME280;10065;49.632;8.346;2022-12-16T11:45:51;100299.47;;;3.70;49.16
19811;BME280;10065;49.632;8.346;2022-12-16T11:48:41;100299.97;;;3.38;50.31
19811;BME280;10065;49.632;8.346;2022-12-16T11:51:31;100298.09;;;3.15;51.18
19811;BME280;10065;49.632;8.346;2022-12-16T11:54:27;100297.66;;;2.96;52.00
19811;BME280;10065;49.632;8.346;2022-12-16T11:57:38;100312.13;;;2.89;52.21
19811;BME280;10065;49.632;8.346;2022-12-16T12:00:27;100320.06;;;2.75;52.74
19811;BME280;10065;49.632;8.346;2022-12-16T12:03:17;100314.16;;;2.58;53.48
19811;BME280;10065;49.632;8.346;2022-12-16T12:06:12;100324.09;;;2.53;53.60
19811;BME280;10065;49.632;8.346;2022-12-16T12:09:05;100324.09;;;2.53;53.74
19811;BME280;10065;49.632;8.346;2022-12-16T12:11:57;100317.03;;;2.41;54.61
19811;BME280;10065;49.632;8.346;2022-12-16T12:14:50;100318.06;;;2.39;54.73
19811;BME280;10065;49.632;8.346;2022-12-16T12:17:43;100319.13;;;2.36;55.37
19811;BME280;10065;49.632;8.346;2022-12-16T12:20:39;100324.56;;;2.33;55.79
19811;BME280;10065;49.632;8.346;2022-12-16T12:23:35;100327.56;;;2.27;56.17
19811;BME280;10065;49.632;8.346;2022-12-16T12:26:27;100324.50;;;2.20;56.34
19811;BME280;10065;49.632;8.346;2022-12-16T12:29:18;100325.56;;;2.18;56.77
19811;BME280;10065;49.632;8.346;2022-12-16T12:32:15;100323.66;;;2.20;56.69
19811;BME280;10065;49.632;8.346;2022-12-16T12:35:21;100325.34;;;2.21;57.11
19811;BME280;10065;49.632;8.346;2022-12-16T12:38:17;100331.31;;;2.23;57.25
19811;BME280;10065;49.632;8.346;2022-12-16T12:41:08;100338.13;;;2.25;57.05
19811;BME280;10065;49.632;8.346;2022-12-16T12:44:00;100347.00;;;2.23;57.51
19811;BME280;10065;49.632;8.346;2022-12-16T12:46:55;100340.09;;;2.22;57.61
19811;BME280;10065;49.632;8.346;2022-12-16T12:49:48;100349.53;;;2.24;57.50
19811;BME280;10065;49.632;8.346;2022-12-16T12:53:00;100348.78;;;2.22;57.85
19811;BME280;10065;49.632;8.346;2022-12-16T12:55:56;100339.25;;;2.21;57.93
19811;BME280;10065;49.632;8.346;2022-12-16T12:58:46;100351.06;;;2.14;58.40
19811;BME280;10065;49.632;8.346;2022-12-16T13:01:40;100349.31;;;2.01;59.01
19811;BME280;10065;49.632;8.346;2022-12-16T13:04:30;100358.19;;;1.98;59.33
19811;BME280;10065;49.632;8.346;2022-12-16T13:07:16;100362.94;;;2.06;59.38
19811;BME280;10065;49.632;8.346;2022-12-16T13:10:30;100372.16;;;2.11;58.56
19811;BME280;10065;49.632;8.346;2022-12-16T13:13:31;100371.13;;;2.14;58.90
19811;BME280;10065;49.632;8.346;2022-12-16T13:19:58;100370.66;;;2.21;58.58
19811;BME280;10065;49.632;8.346;2022-12-16T13:22:45;100377.13;;;2.16;58.82
19811;BME280;10065;49.632;8.346;2022-12-16T13:25:41;100376.38;;;2.14;59.41
19811;BME280;10065;49.632;8.346;2022-12-16T13:28:31;100379.16;;;2.25;58.66
19811;BME280;10065;49.632;8.346;2022-12-16T13:31:19;100382.53;;;2.27;58.82
19811;BME280;10065;49.632;8.346;2022-12-16T13:34:18;100383.56;;;2.24;58.59
19811;BME280;10065;49.632;8.346;2022-12-16T13:37:06;100396.53;;;2.26;58.97
19811;BME280;10065;49.632;8.346;2022-12-16T13:40:04;100402.63;;;2.26;59.26
19811;BME280;10065;49.632;8.346;2022-12-16T13:42:50;100397.56;;;2.23;59.44
19811;BME280;10065;49.632;8.346;2022-12-16T13:45:41;100401.31;;;2.19;59.55
19811;BME280;10065;49.632;8.346;2022-12-16T13:48:36;100414.09;;;2.24;59.52
19811;BME280;10065;49.632;8.346;2022-12-16T13:51:57;100414.75;;;2.28;59.20
19811;BME280;10065;49.632;8.346;2022-12-16T13:54:50;100413.69;;;2.30;59.06
19811;BME280;10065;49.632;8.346;2022-12-16T13:57:40;100409.31;;;2.31;58.90
19811;BME280;10065;49.632;8.346;2022-12-16T14:00:28;100417.06;;;2.32;59.32
19811;BME280;10065;49.632;8.346;2022-12-16T14:03:17;100425.69;;;2.34;59.05
19811;BME280;10065;49.632;8.346;2022-12-16T14:06:09;100428.19;;;2.36;58.80
19811;BME280;10065;49.632;8.346;2022-12-16T14:08:56;100419.41;;;2.37;58.97
19811;BME280;10065;49.632;8.346;2022-12-16T14:11:47;100431.66;;;2.36;59.37
19811;BME280;10065;49.632;8.346;2022-12-16T14:14:41;100436.53;;;2.28;59.37
19811;BME280;10065;49.632;8.346;2022-12-16T14:17:35;100447.56;;;2.19;59.63
19811;BME280;10065;49.632;8.346;2022-12-16T14:20:27;100444.59;;;2.11;59.95
19811;BME280;10065;49.632;8.346;2022-12-16T14:23:26;100446.81;;;2.17;59.73
19811;BME280;10065;49.632;8.346;2022-12-16T14:26:23;100452.81;;;2.19;59.85
19811;BME280;10065;49.632;8.346;2022-12-16T14:29:17;100450.38;;;2.16;59.65
19811;BME280;10065;49.632;8.346;2022-12-16T14:32:18;100460.66;;;2.19;59.63
19811;BME280;10065;49.632;8.346;2022-12-16T14:35:06;100459.69;;;2.20;59.22